sensor_id;sensor_type;location;lat;lon;timestamp;P1;durP1;ratioP1;P2;durP2;ratioP2
32918;SDS011;19280;42.646;21.150;2022-09-01T00:02:13;30.30;;;22.77;;
32918;SDS011;19280;42.646;21.150;2022-09-01T00:04:42;28.35;;;21.95;;
32918;SDS011;19280;42.646;21.150;2022-09-01T00:07:09;28.80;;;22.20;;
32918;SDS011;19280;42.646;21.150;2022-09-01T00:09:38;29.75;;;22.50;;
32918;SDS011;19280;42.646;21.150;2022-09-01T00:12:07;30.55;;;20.95;;
32918;SDS011;19280;42.646;21.150;2022-09-01T00:14:35;30.00;;;22.95;;
32918;SDS011;19280;42.646;21.150;2022-09-01T00:17:04;30.90;;;22.13;;
32918;SDS011;19280;42.646;21.150;2022-09-01T00:19:31;38.92;;;28.85;;
32918;SDS011;19280;42.646;21.150;2022-09-01T00:22:00;42.00;;;30.48;;
32918;SDS011;19280;42.646;21.150;2022-09-01T00:24:27;27.73;;;22.75;;
32918;SDS011;19280;42.646;21.150;2022-09-01T00:26:55;35.38;;;22.52;;
32918;SDS011;19280;42.646;21.150;2022-09-01T00:29:23;32.45;;;22.83;;
32918;SDS011;19280;42.646;21.150;2022-09-01T00:31:51;29.73;;;22.35;;
32918;SDS011;19280;42.646;21.150;2022-09-01T00:34:18;32.47;;;23.33;;
32918;SDS011;19280;42.646;21.150;2022-09-01T00:36:46;27.42;;;23.42;;
32918;SDS011;19280;42.646;21.150;2022-09-01T00:39:13;31.75;;;23.27;;
32918;SDS011;19280;42.646;21.150;2022-09-01T00:41:41;33.97;;;22.92;;
32918;SDS011;19280;42.646;21.150;2022-09-01T00:44:11;27.40;;;22.70;;
32918;SDS011;19280;42.646;21.150;2022-09-01T00:46:42;26.75;;;21.58;;
32918;SDS011;19280;42.646;21.150;2022-09-01T00:49:31;31.20;;;23.02;;
32918;SDS011;19280;42.646;21.150;2022-09-01T00:51:59;26.80;;;21.80;;
32918;SDS011;19280;42.646;21.150;2022-09-01T00:54:28;28.50;;;21.80;;
32918;SDS011;19280;42.646;21.150;2022-09-01T00:56:57;29.75;;;23.25;;
32918;SDS011;19280;42.646;21.150;2022-09-01T00:59:24;36.78;;;23.52;;
32918;SDS011;19280;42.646;21.150;2022-09-01T01:01:51;35.08;;;24.40;;
32918;SDS011;19280;42.646;21.150;2022-09-01T01:04:19;29.98;;;24.38;;
32918;SDS011;19280;42.646;21.150;2022-09-01T01:06:47;34.08;;;24.20;;
32918;SDS011;19280;42.646;21.150;2022-09-01T01:09:18;30.83;;;23.40;;
32918;SDS011;19280;42.646;21.150;2022-09-01T01:11:46;33.22;;;24.52;;
32918;SDS011;19280;42.646;21.150;2022-09-01T01:14:14;33.75;;;25.08;;
32918;SDS011;19280;42.646;21.150;2022-09-01T01:16:44;38.90;;;26.38;;
32918;SDS011;19280;42.646;21.150;2022-09-01T01:19:37;42.22;;;27.63;;
32918;SDS011;19280;42.646;21.150;2022-09-01T01:22:28;33.83;;;27.10;;
32918;SDS011;19280;42.646;21.150;2022-09-01T01:25:16;43.80;;;27.83;;
32918;SDS011;19280;42.646;21.150;2022-09-01T01:27:43;35.88;;;28.25;;
32918;SDS011;19280;42.646;21.150;2022-09-01T01:30:11;38.97;;;28.73;;
32918;SDS011;19280;42.646;21.150;2022-09-01T01:32:38;40.97;;;28.08;;
32918;SDS011;19280;42.646;21.150;2022-09-01T01:35:09;36.88;;;29.08;;
32918;SDS011;19280;42.646;21.150;2022-09-01T01:37:43;39.37;;;29.40;;
32918;SDS011;19280;42.646;21.150;2022-09-01T01:40:12;36.58;;;28.13;;
32918;SDS011;19280;42.646;21.150;2022-09-01T01:42:44;41.70;;;29.05;;
32918;SDS011;19280;42.646;21.150;2022-09-01T01:45:12;40.00;;;30.95;;
32918;SDS011;19280;42.646;21.150;2022-09-01T01:47:43;40.03;;;28.92;;
32918;SDS011;19280;42.646;21.150;2022-09-01T01:50:12;40.70;;;29.83;;
32918;SDS011;19280;42.646;21.150;2022-09-01T01:52:40;38.38;;;28.73;;
32918;SDS011;19280;42.646;21.150;2022-09-01T01:55:08;38.03;;;31.13;;
32918;SDS011;19280;42.646;21.150;2022-09-01T01:57:38;40.83;;;29.65;;
32918;SDS011;19280;42.646;21.150;2022-09-01T02:00:16;43.83;;;31.73;;
32918;SDS011;19280;42.646;21.150;2022-09-01T02:02:46;40.50;;;31.40;;
32918;SDS011;19280;42.646;21.150;2022-09-01T02:05:18;40.03;;;31.77;;
32918;SDS011;19280;42.646;21.150;2022-09-01T02:07:47;38.03;;;30.98;;
32918;SDS011;19280;42.646;21.150;2022-09-01T02:10:15;43.45;;;32.67;;
32918;SDS011;19280;42.646;21.150;2022-09-01T02:12:42;41.70;;;33.35;;
32918;SDS011;19280;42.646;21.150;2022-09-01T02:15:11;45.78;;;33.20;;
32918;SDS011;19280;42.646;21.150;2022-09-01T02:17:38;40.08;;;30.70;;
32918;SDS011;19280;42.646;21.150;2022-09-01T02:20:08;40.72;;;29.48;;
32918;SDS011;19280;42.646;21.150;2022-09-01T02:22:35;42.65;;;30.65;;
32918;SDS011;19280;42.646;21.150;2022-09-01T02:25:03;52.13;;;33.25;;
32918;SDS011;19280;42.646;21.150;2022-09-01T02:27:31;49.95;;;31.70;;
32918;SDS011;19280;42.646;21.150;2022-09-01T02:30:00;49.40;;;31.63;;
32918;SDS011;19280;42.646;21.150;2022-09-01T02:32:27;44.40;;;31.67;;
32918;SDS011;19280;42.646;21.150;2022-09-01T02:34:54;39.08;;;27.48;;
32918;SDS011;19280;42.646;21.150;2022-09-01T02:37:26;30.20;;;25.00;;
32918;SDS011;19280;42.646;21.150;2022-09-01T02:39:54;34.58;;;23.98;;
32918;SDS011;19280;42.646;21.150;2022-09-01T02:42:22;30.58;;;21.98;;
32918;SDS011;19280;42.646;21.150;2022-09-01T02:44:52;35.20;;;22.08;;
32918;SDS011;19280;42.646;21.150;2022-09-01T02:47:20;27.75;;;22.17;;
32918;SDS011;19280;42.646;21.150;2022-09-01T02:49:50;27.80;;;21.73;;
32918;SDS011;19280;42.646;21.150;2022-09-01T02:52:17;30.60;;;22.35;;
32918;SDS011;19280;42.646;21.150;2022-09-01T02:54:49;29.80;;;21.58;;
32918;SDS011;19280;42.646;21.150;2022-09-01T02:57:16;29.95;;;20.92;;
32918;SDS011;19280;42.646;21.150;2022-09-01T02:59:43;31.58;;;21.95;;
32918;SDS011;19280;42.646;21.150;2022-09-01T03:02:12;31.23;;;21.23;;
32918;SDS011;19280;42.646;21.150;2022-09-01T03:04:39;30.38;;;21.80;;
32918;SDS011;19280;42.646;21.150;2022-09-01T03:07:07;26.17;;;21.55;;
32918;SDS011;19280;42.646;21.150;2022-09-01T03:09:34;24.15;;;21.48;;
32918;SDS011;19280;42.646;21.150;2022-09-01T03:12:01;25.05;;;21.20;;
32918;SDS011;19280;42.646;21.150;2022-09-01T03:14:29;34.40;;;22.17;;
32918;SDS011;19280;42.646;21.150;2022-09-01T03:16:57;26.92;;;21.83;;
32918;SDS011;19280;42.646;21.150;2022-09-01T03:19:25;31.10;;;22.10;;
32918;SDS011;19280;42.646;21.150;2022-09-01T03:21:57;29.17;;;24.23;;
32918;SDS011;19280;42.646;21.150;2022-09-01T03:24:24;28.13;;;23.13;;
32918;SDS011;19280;42.646;21.150;2022-09-01T03:26:51;41.25;;;23.38;;
32918;SDS011;19280;42.646;21.150;2022-09-01T03:29:19;37.90;;;23.33;;
32918;SDS011;19280;42.646;21.150;2022-09-01T03:31:46;32.50;;;24.00;;
32918;SDS011;19280;42.646;21.150;2022-09-01T03:34:13;31.73;;;22.55;;
32918;SDS011;19280;42.646;21.150;2022-09-01T03:36:41;31.15;;;23.05;;
32918;SDS011;19280;42.646;21.150;2022-09-01T03:39:15;30.83;;;22.27;;
32918;SDS011;19280;42.646;21.150;2022-09-01T03:41:43;32.17;;;22.50;;
32918;SDS011;19280;42.646;21.150;2022-09-01T03:44:10;28.52;;;22.85;;
32918;SDS011;19280;42.646;21.150;2022-09-01T03:46:41;28.35;;;20.95;;
32918;SDS011;19280;42.646;21.150;2022-09-01T03:49:09;29.45;;;21.73;;
32918;SDS011;19280;42.646;21.150;2022-09-01T03:51:41;26.67;;;21.50;;
32918;SDS011;19280;42.646;21.150;2022-09-01T03:54:09;33.20;;;21.92;;
32918;SDS011;19280;42.646;21.150;2022-09-01T03:56:37;32.05;;;21.58;;
32918;SDS011;19280;42.646;21.150;2022-09-01T03:59:06;28.63;;;22.65;;
32918;SDS011;19280;42.646;21.150;2022-09-01T04:01:33;30.27;;;23.90;;
32918;SDS011;19280;42.646;21.150;2022-09-01T04:04:06;32.63;;;25.83;;
32918;SDS011;19280;42.646;21.150;2022-09-01T04:06:33;32.88;;;25.73;;
32918;SDS011;19280;42.646;21.150;2022-09-01T04:09:02;35.22;;;24.55;;
32918;SDS011;19280;42.646;21.150;2022-09-01T04:11:29;28.92;;;24.75;;
32918;SDS011;19280;42.646;21.150;2022-09-01T04:13:58;28.70;;;24.00;;
32918;SDS011;19280;42.646;21.150;2022-09-01T04:16:27;32.70;;;23.65;;
32918;SDS011;19280;42.646;21.150;2022-09-01T04:19:14;31.55;;;22.67;;
32918;SDS011;19280;42.646;21.150;2022-09-01T04:21:45;32.83;;;21.38;;
32918;SDS011;19280;42.646;21.150;2022-09-01T04:24:12;33.00;;;22.55;;
32918;SDS011;19280;42.646;21.150;2022-09-01T04:26:40;23.77;;;20.40;;
32918;SDS011;19280;42.646;21.150;2022-09-01T04:29:07;27.15;;;20.92;;
32918;SDS011;19280;42.646;21.150;2022-09-01T04:31:36;26.33;;;20.13;;
32918;SDS011;19280;42.646;21.150;2022-09-01T04:34:05;27.85;;;20.10;;
32918;SDS011;19280;42.646;21.150;2022-09-01T04:36:39;30.40;;;20.65;;
32918;SDS011;19280;42.646;21.150;2022-09-01T04:39:06;26.70;;;20.52;;
32918;SDS011;19280;42.646;21.150;2022-09-01T04:41:36;30.90;;;21.55;;
32918;SDS011;19280;42.646;21.150;2022-09-01T04:44:04;30.60;;;21.25;;
32918;SDS011;19280;42.646;21.150;2022-09-01T04:46:33;29.88;;;20.13;;
32918;SDS011;19280;42.646;21.150;2022-09-01T04:49:01;24.73;;;20.50;;
32918;SDS011;19280;42.646;21.150;2022-09-01T04:51:32;28.73;;;20.35;;
32918;SDS011;19280;42.646;21.150;2022-09-01T04:54:00;27.25;;;18.13;;
32918;SDS011;19280;42.646;21.150;2022-09-01T04:56:28;23.05;;;17.90;;
32918;SDS011;19280;42.646;21.150;2022-09-01T04:58:56;22.27;;;16.30;;
32918;SDS011;19280;42.646;21.150;2022-09-01T05:01:24;30.42;;;16.27;;
32918;SDS011;19280;42.646;21.150;2022-09-01T05:03:53;18.33;;;14.60;;
32918;SDS011;19280;42.646;21.150;2022-09-01T05:06:26;20.00;;;15.35;;
32918;SDS011;19280;42.646;21.150;2022-09-01T05:08:54;31.42;;;16.70;;
32918;SDS011;19280;42.646;21.150;2022-09-01T05:11:25;40.72;;;16.38;;
32918;SDS011;19280;42.646;21.150;2022-09-01T05:13:52;21.85;;;13.05;;
32918;SDS011;19280;42.646;21.150;2022-09-01T05:16:22;18.63;;;12.48;;
32918;SDS011;19280;42.646;21.150;2022-09-01T05:18:50;18.48;;;12.20;;
32918;SDS011;19280;42.646;21.150;2022-09-01T05:21:22;23.67;;;12.40;;
32918;SDS011;19280;42.646;21.150;2022-09-01T05:23:53;22.35;;;13.48;;
32918;SDS011;19280;42.646;21.150;2022-09-01T05:26:25;17.77;;;11.80;;
32918;SDS011;19280;42.646;21.150;2022-09-01T05:28:54;22.50;;;13.27;;
32918;SDS011;19280;42.646;21.150;2022-09-01T05:31:22;27.33;;;13.25;;
32918;SDS011;19280;42.646;21.150;2022-09-01T05:33:49;25.25;;;13.25;;
32918;SDS011;19280;42.646;21.150;2022-09-01T05:36:19;24.08;;;13.50;;
32918;SDS011;19280;42.646;21.150;2022-09-01T05:38:46;22.98;;;13.55;;
32918;SDS011;19280;42.646;21.150;2022-09-01T05:41:14;20.30;;;14.50;;
32918;SDS011;19280;42.646;21.150;2022-09-01T05:43:41;27.35;;;15.32;;
32918;SDS011;19280;42.646;21.150;2022-09-01T05:46:12;22.45;;;15.57;;
32918;SDS011;19280;42.646;21.150;2022-09-01T05:48:42;27.85;;;15.85;;
32918;SDS011;19280;42.646;21.150;2022-09-01T05:51:10;22.30;;;13.75;;
32918;SDS011;19280;42.646;21.150;2022-09-01T05:53:40;23.60;;;13.65;;
32918;SDS011;19280;42.646;21.150;2022-09-01T05:56:08;21.33;;;13.35;;
32918;SDS011;19280;42.646;21.150;2022-09-01T05:58:39;19.60;;;12.52;;
32918;SDS011;19280;42.646;21.150;2022-09-01T06:01:09;15.32;;;11.65;;
32918;SDS011;19280;42.646;21.150;2022-09-01T06:03:37;18.35;;;11.45;;
32918;SDS011;19280;42.646;21.150;2022-09-01T06:06:05;18.63;;;11.10;;
32918;SDS011;19280;42.646;21.150;2022-09-01T08:35:19;19.20;;;8.97;;
32918;SDS011;19280;42.646;21.150;2022-09-01T08:37:46;23.52;;;9.57;;
32918;SDS011;19280;42.646;21.150;2022-09-01T08:40:14;14.15;;;8.75;;
32918;SDS011;19280;42.646;21.150;2022-09-01T08:45:31;16.60;;;8.70;;
32918;SDS011;19280;42.646;21.150;2022-09-01T08:48:00;13.68;;;9.02;;
32918;SDS011;19280;42.646;21.150;2022-09-01T08:50:28;20.73;;;9.30;;
32918;SDS011;19280;42.646;21.150;2022-09-01T08:53:01;22.88;;;9.23;;
32918;SDS011;19280;42.646;21.150;2022-09-01T08:55:35;25.63;;;8.85;;
32918;SDS011;19280;42.646;21.150;2022-09-01T08:58:04;20.42;;;9.82;;
32918;SDS011;19280;42.646;21.150;2022-09-01T09:00:41;17.05;;;8.98;;
32918;SDS011;19280;42.646;21.150;2022-09-01T09:03:12;20.77;;;9.85;;
32918;SDS011;19280;42.646;21.150;2022-09-01T09:05:54;24.17;;;10.10;;
32918;SDS011;19280;42.646;21.150;2022-09-01T09:13:54;21.23;;;9.95;;
32918;SDS011;19280;42.646;21.150;2022-09-01T09:19:02;29.27;;;11.13;;
32918;SDS011;19280;42.646;21.150;2022-09-01T09:21:34;23.55;;;11.07;;
32918;SDS011;19280;42.646;21.150;2022-09-01T09:24:35;23.92;;;11.90;;
32918;SDS011;19280;42.646;21.150;2022-09-01T09:27:20;29.15;;;12.68;;
32918;SDS011;19280;42.646;21.150;2022-09-01T09:30:05;33.97;;;12.18;;
32918;SDS011;19280;42.646;21.150;2022-09-01T09:32:42;25.50;;;11.93;;
32918;SDS011;19280;42.646;21.150;2022-09-01T09:35:21;27.55;;;11.57;;
32918;SDS011;19280;42.646;21.150;2022-09-01T09:37:48;26.08;;;11.57;;
32918;SDS011;19280;42.646;21.150;2022-09-01T09:40:17;23.90;;;11.10;;
32918;SDS011;19280;42.646;21.150;2022-09-01T09:47:59;32.17;;;12.45;;
32918;SDS011;19280;42.646;21.150;2022-09-01T09:50:27;30.92;;;13.30;;
32918;SDS011;19280;42.646;21.150;2022-09-01T09:53:11;27.45;;;12.07;;
32918;SDS011;19280;42.646;21.150;2022-09-01T09:55:58;24.15;;;12.38;;
32918;SDS011;19280;42.646;21.150;2022-09-01T09:58:44;24.23;;;11.98;;
32918;SDS011;19280;42.646;21.150;2022-09-01T10:03:52;21.02;;;11.70;;
32918;SDS011;19280;42.646;21.150;2022-09-01T10:08:45;26.90;;;12.32;;
32918;SDS011;19280;42.646;21.150;2022-09-01T10:11:29;22.80;;;11.48;;
32918;SDS011;19280;42.646;21.150;2022-09-01T10:13:56;18.45;;;11.02;;
32918;SDS011;19280;42.646;21.150;2022-09-01T10:16:25;21.08;;;12.07;;
32918;SDS011;19280;42.646;21.150;2022-09-01T10:18:53;19.92;;;10.85;;
32918;SDS011;19280;42.646;21.150;2022-09-01T10:21:32;25.08;;;11.52;;
32918;SDS011;19280;42.646;21.150;2022-09-01T10:24:08;22.80;;;10.88;;
32918;SDS011;19280;42.646;21.150;2022-09-01T10:26:38;25.42;;;11.07;;
32918;SDS011;19280;42.646;21.150;2022-09-01T10:31:43;28.05;;;11.70;;
32918;SDS011;19280;42.646;21.150;2022-09-01T10:34:11;18.77;;;10.20;;
32918;SDS011;19280;42.646;21.150;2022-09-01T10:36:41;22.27;;;11.07;;
32918;SDS011;19280;42.646;21.150;2022-09-01T10:39:13;24.58;;;11.65;;
32918;SDS011;19280;42.646;21.150;2022-09-01T10:44:31;19.33;;;10.95;;
32918;SDS011;19280;42.646;21.150;2022-09-01T10:47:01;21.75;;;10.95;;
32918;SDS011;19280;42.646;21.150;2022-09-01T10:51:59;18.25;;;10.07;;
32918;SDS011;19280;42.646;21.150;2022-09-01T10:57:07;15.10;;;10.00;;
32918;SDS011;19280;42.646;21.150;2022-09-01T10:59:35;16.65;;;10.18;;
32918;SDS011;19280;42.646;21.150;2022-09-01T11:02:03;17.08;;;9.30;;
32918;SDS011;19280;42.646;21.150;2022-09-01T11:06:59;14.35;;;9.23;;
32918;SDS011;19280;42.646;21.150;2022-09-01T11:09:31;19.23;;;8.95;;
32918;SDS011;19280;42.646;21.150;2022-09-01T11:12:11;16.30;;;8.95;;
32918;SDS011;19280;42.646;21.150;2022-09-01T11:14:51;18.63;;;9.43;;
32918;SDS011;19280;42.646;21.150;2022-09-01T11:19:59;17.92;;;8.80;;
32918;SDS011;19280;42.646;21.150;2022-09-01T11:30:23;22.20;;;9.52;;
32918;SDS011;19280;42.646;21.150;2022-09-01T11:32:51;18.13;;;9.90;;
32918;SDS011;19280;42.646;21.150;2022-09-01T11:35:23;12.80;;;8.18;;
32918;SDS011;19280;42.646;21.150;2022-09-01T11:37:54;15.57;;;9.10;;
32918;SDS011;19280;42.646;21.150;2022-09-01T11:40:25;14.90;;;8.63;;
32918;SDS011;19280;42.646;21.150;2022-09-01T11:42:53;14.73;;;9.18;;
32918;SDS011;19280;42.646;21.150;2022-09-01T11:45:26;15.40;;;9.57;;
32918;SDS011;19280;42.646;21.150;2022-09-01T11:48:05;16.00;;;9.73;;
32918;SDS011;19280;42.646;21.150;2022-09-01T11:50:34;15.27;;;9.25;;
32918;SDS011;19280;42.646;21.150;2022-09-01T11:53:11;13.50;;;8.68;;
32918;SDS011;19280;42.646;21.150;2022-09-01T11:55:43;18.50;;;8.10;;
32918;SDS011;19280;42.646;21.150;2022-09-01T11:58:11;13.18;;;9.07;;
32918;SDS011;19280;42.646;21.150;2022-09-01T12:00:39;13.05;;;8.57;;
32918;SDS011;19280;42.646;21.150;2022-09-01T12:03:20;13.25;;;8.07;;
32918;SDS011;19280;42.646;21.150;2022-09-01T12:05:51;13.63;;;8.32;;
32918;SDS011;19280;42.646;21.150;2022-09-01T12:08:23;14.75;;;7.93;;
32918;SDS011;19280;42.646;21.150;2022-09-01T12:11:12;11.93;;;8.73;;
32918;SDS011;19280;42.646;21.150;2022-09-01T12:13:53;18.80;;;9.25;;
32918;SDS011;19280;42.646;21.150;2022-09-01T12:16:21;20.38;;;9.73;;
32918;SDS011;19280;42.646;21.150;2022-09-01T12:18:48;14.93;;;8.75;;
32918;SDS011;19280;42.646;21.150;2022-09-01T12:23:51;13.68;;;9.45;;
32918;SDS011;19280;42.646;21.150;2022-09-01T12:26:27;17.52;;;9.07;;
32918;SDS011;19280;42.646;21.150;2022-09-01T12:28:55;13.73;;;8.45;;
32918;SDS011;19280;42.646;21.150;2022-09-01T12:31:23;10.18;;;8.55;;
32918;SDS011;19280;42.646;21.150;2022-09-01T12:33:51;16.15;;;9.18;;
32918;SDS011;19280;42.646;21.150;2022-09-01T12:38:46;11.35;;;8.73;;
32918;SDS011;19280;42.646;21.150;2022-09-01T12:41:23;21.63;;;9.02;;
32918;SDS011;19280;42.646;21.150;2022-09-01T12:43:50;15.27;;;8.80;;
32918;SDS011;19280;42.646;21.150;2022-09-01T12:49:15;14.43;;;8.30;;
32918;SDS011;19280;42.646;21.150;2022-09-01T12:51:42;17.58;;;8.93;;
32918;SDS011;19280;42.646;21.150;2022-09-01T12:54:12;11.32;;;7.75;;
32918;SDS011;19280;42.646;21.150;2022-09-01T12:56:38;12.10;;;8.30;;
32918;SDS011;19280;42.646;21.150;2022-09-01T12:59:11;13.32;;;9.00;;
32918;SDS011;19280;42.646;21.150;2022-09-01T13:01:40;15.40;;;7.18;;
32918;SDS011;19280;42.646;21.150;2022-09-01T13:06:34;11.93;;;7.47;;
32918;SDS011;19280;42.646;21.150;2022-09-01T13:09:00;10.52;;;7.20;;
32918;SDS011;19280;42.646;21.150;2022-09-01T13:11:27;12.90;;;7.05;;
32918;SDS011;19280;42.646;21.150;2022-09-01T13:13:54;13.98;;;7.63;;
32918;SDS011;19280;42.646;21.150;2022-09-01T13:16:21;10.25;;;7.40;;
32918;SDS011;19280;42.646;21.150;2022-09-01T13:18:48;10.50;;;7.72;;
32918;SDS011;19280;42.646;21.150;2022-09-01T13:21:15;13.55;;;6.72;;
32918;SDS011;19280;42.646;21.150;2022-09-01T13:23:42;22.85;;;7.50;;
32918;SDS011;19280;42.646;21.150;2022-09-01T13:26:11;13.07;;;7.35;;
32918;SDS011;19280;42.646;21.150;2022-09-01T13:28:38;15.65;;;7.38;;
32918;SDS011;19280;42.646;21.150;2022-09-01T13:31:05;12.57;;;9.25;;
32918;SDS011;19280;42.646;21.150;2022-09-01T13:33:32;11.82;;;7.35;;
32918;SDS011;19280;42.646;21.150;2022-09-01T13:36:00;20.00;;;8.15;;
32918;SDS011;19280;42.646;21.150;2022-09-01T13:38:27;13.10;;;9.07;;
32918;SDS011;19280;42.646;21.150;2022-09-01T13:40:55;16.48;;;7.63;;
32918;SDS011;19280;42.646;21.150;2022-09-01T13:43:22;13.68;;;8.57;;
32918;SDS011;19280;42.646;21.150;2022-09-01T13:45:51;17.08;;;8.43;;
32918;SDS011;19280;42.646;21.150;2022-09-01T13:48:18;17.98;;;8.88;;
32918;SDS011;19280;42.646;21.150;2022-09-01T13:50:45;13.07;;;8.90;;
32918;SDS011;19280;42.646;21.150;2022-09-01T13:53:17;14.38;;;9.40;;
32918;SDS011;19280;42.646;21.150;2022-09-01T13:55:44;16.52;;;10.20;;
32918;SDS011;19280;42.646;21.150;2022-09-01T13:58:11;14.80;;;9.75;;
32918;SDS011;19280;42.646;21.150;2022-09-01T14:00:43;18.52;;;10.05;;
32918;SDS011;19280;42.646;21.150;2022-09-01T14:03:17;18.17;;;10.38;;
32918;SDS011;19280;42.646;21.150;2022-09-01T14:05:45;17.63;;;10.13;;
32918;SDS011;19280;42.646;21.150;2022-09-01T14:08:14;18.40;;;10.55;;
32918;SDS011;19280;42.646;21.150;2022-09-01T14:10:42;17.65;;;10.88;;
32918;SDS011;19280;42.646;21.150;2022-09-01T14:13:09;21.10;;;10.93;;
32918;SDS011;19280;42.646;21.150;2022-09-01T14:15:36;20.23;;;11.10;;
32918;SDS011;19280;42.646;21.150;2022-09-01T14:18:03;19.75;;;10.57;;
32918;SDS011;19280;42.646;21.150;2022-09-01T14:20:35;14.82;;;8.90;;
32918;SDS011;19280;42.646;21.150;2022-09-01T14:23:04;17.92;;;9.77;;
32918;SDS011;19280;42.646;21.150;2022-09-01T14:25:33;15.75;;;9.00;;
32918;SDS011;19280;42.646;21.150;2022-09-01T14:28:00;19.73;;;9.88;;
32918;SDS011;19280;42.646;21.150;2022-09-01T14:30:28;17.92;;;9.32;;
32918;SDS011;19280;42.646;21.150;2022-09-01T14:32:57;12.85;;;8.80;;
32918;SDS011;19280;42.646;21.150;2022-09-01T14:35:24;19.17;;;10.10;;
32918;SDS011;19280;42.646;21.150;2022-09-01T14:37:51;20.13;;;13.68;;
32918;SDS011;19280;42.646;21.150;2022-09-01T14:40:19;25.27;;;12.00;;
32918;SDS011;19280;42.646;21.150;2022-09-01T14:42:47;19.27;;;11.80;;
32918;SDS011;19280;42.646;21.150;2022-09-01T14:45:19;16.50;;;9.93;;
32918;SDS011;19280;42.646;21.150;2022-09-01T14:47:47;13.35;;;8.75;;
32918;SDS011;19280;42.646;21.150;2022-09-01T14:50:15;14.32;;;9.10;;
32918;SDS011;19280;42.646;21.150;2022-09-01T14:52:42;17.85;;;9.82;;
32918;SDS011;19280;42.646;21.150;2022-09-01T14:55:09;11.65;;;7.22;;
32918;SDS011;19280;42.646;21.150;2022-09-01T14:57:36;13.13;;;7.20;;
32918;SDS011;19280;42.646;21.150;2022-09-01T15:00:07;11.75;;;7.13;;
32918;SDS011;19280;42.646;21.150;2022-09-01T15:02:35;10.15;;;6.65;;
32918;SDS011;19280;42.646;21.150;2022-09-01T15:05:03;8.57;;;6.55;;
32918;SDS011;19280;42.646;21.150;2022-09-01T15:07:30;14.15;;;7.43;;
32918;SDS011;19280;42.646;21.150;2022-09-01T15:09:57;16.02;;;8.73;;
32918;SDS011;19280;42.646;21.150;2022-09-01T15:12:24;23.20;;;14.68;;
32918;SDS011;19280;42.646;21.150;2022-09-01T15:14:56;7.75;;;5.70;;
32918;SDS011;19280;42.646;21.150;2022-09-01T15:17:24;11.95;;;7.10;;
32918;SDS011;19280;42.646;21.150;2022-09-01T15:19:51;6.47;;;4.63;;
32918;SDS011;19280;42.646;21.150;2022-09-01T15:22:18;9.07;;;4.88;;
32918;SDS011;19280;42.646;21.150;2022-09-01T15:24:45;7.25;;;5.18;;
32918;SDS011;19280;42.646;21.150;2022-09-01T15:27:12;15.68;;;6.18;;
32918;SDS011;19280;42.646;21.150;2022-09-01T15:29:39;12.93;;;6.30;;
32918;SDS011;19280;42.646;21.150;2022-09-01T15:32:12;9.25;;;6.65;;
32918;SDS011;19280;42.646;21.150;2022-09-01T15:34:40;12.93;;;6.68;;
32918;SDS011;19280;42.646;21.150;2022-09-01T15:37:07;15.50;;;7.20;;
32918;SDS011;19280;42.646;21.150;2022-09-01T15:39:34;11.23;;;8.32;;
32918;SDS011;19280;42.646;21.150;2022-09-01T15:42:01;10.75;;;7.18;;
32918;SDS011;19280;42.646;21.150;2022-09-01T15:44:28;16.25;;;8.25;;
32918;SDS011;19280;42.646;21.150;2022-09-01T15:46:55;12.95;;;8.57;;
32918;SDS011;19280;42.646;21.150;2022-09-01T15:49:22;15.10;;;8.77;;
32918;SDS011;19280;42.646;21.150;2022-09-01T15:51:48;18.00;;;9.20;;
32918;SDS011;19280;42.646;21.150;2022-09-01T15:54:16;17.90;;;9.45;;
32918;SDS011;19280;42.646;21.150;2022-09-01T15:56:43;16.60;;;8.57;;
32918;SDS011;19280;42.646;21.150;2022-09-01T15:59:12;13.25;;;8.20;;
32918;SDS011;19280;42.646;21.150;2022-09-01T16:01:41;13.95;;;8.70;;
32918;SDS011;19280;42.646;21.150;2022-09-01T16:04:11;13.80;;;9.02;;
32918;SDS011;19280;42.646;21.150;2022-09-01T16:06:39;12.10;;;8.35;;
32918;SDS011;19280;42.646;21.150;2022-09-01T16:09:09;12.35;;;9.05;;
32918;SDS011;19280;42.646;21.150;2022-09-01T16:11:37;12.10;;;8.55;;
32918;SDS011;19280;42.646;21.150;2022-09-01T16:14:04;16.80;;;9.07;;
32918;SDS011;19280;42.646;21.150;2022-09-01T16:16:38;15.13;;;8.57;;
32918;SDS011;19280;42.646;21.150;2022-09-01T16:19:12;16.23;;;9.70;;
32918;SDS011;19280;42.646;21.150;2022-09-01T16:24:09;14.10;;;9.95;;
32918;SDS011;19280;42.646;21.150;2022-09-01T16:26:36;14.45;;;9.98;;
32918;SDS011;19280;42.646;21.150;2022-09-01T16:29:08;16.45;;;9.82;;
32918;SDS011;19280;42.646;21.150;2022-09-01T16:31:37;14.98;;;10.23;;
32918;SDS011;19280;42.646;21.150;2022-09-01T16:34:12;13.95;;;9.88;;
32918;SDS011;19280;42.646;21.150;2022-09-01T16:46:55;17.83;;;12.27;;
32918;SDS011;19280;42.646;21.150;2022-09-01T16:49:33;15.27;;;10.38;;
32918;SDS011;19280;42.646;21.150;2022-09-01T16:57:06;12.07;;;9.38;;
32918;SDS011;19280;42.646;21.150;2022-09-01T16:59:59;16.27;;;9.82;;
32918;SDS011;19280;42.646;21.150;2022-09-01T17:02:42;16.25;;;10.80;;
32918;SDS011;19280;42.646;21.150;2022-09-01T17:07:45;16.80;;;10.80;;
32918;SDS011;19280;42.646;21.150;2022-09-01T17:10:24;16.90;;;11.75;;
32918;SDS011;19280;42.646;21.150;2022-09-01T17:12:57;16.50;;;11.05;;
32918;SDS011;19280;42.646;21.150;2022-09-01T17:15:30;16.35;;;10.93;;
32918;SDS011;19280;42.646;21.150;2022-09-01T17:20:38;17.85;;;11.55;;
32918;SDS011;19280;42.646;21.150;2022-09-01T17:23:06;13.52;;;11.13;;
32918;SDS011;19280;42.646;21.150;2022-09-01T17:25:39;20.95;;;11.57;;
32918;SDS011;19280;42.646;21.150;2022-09-01T17:28:07;21.55;;;12.70;;
32918;SDS011;19280;42.646;21.150;2022-09-01T17:30:40;18.05;;;11.68;;
32918;SDS011;19280;42.646;21.150;2022-09-01T17:35:41;19.35;;;11.95;;
32918;SDS011;19280;42.646;21.150;2022-09-01T17:43:07;17.33;;;13.45;;
32918;SDS011;19280;42.646;21.150;2022-09-01T17:48:08;21.13;;;14.15;;
32918;SDS011;19280;42.646;21.150;2022-09-01T17:53:21;24.92;;;15.98;;
32918;SDS011;19280;42.646;21.150;2022-09-01T17:55:59;25.38;;;17.38;;
32918;SDS011;19280;42.646;21.150;2022-09-01T18:03:36;27.10;;;19.55;;
32918;SDS011;19280;42.646;21.150;2022-09-01T18:08:47;29.63;;;20.75;;
32918;SDS011;19280;42.646;21.150;2022-09-01T18:13:46;27.10;;;21.30;;
32918;SDS011;19280;42.646;21.150;2022-09-01T18:16:15;33.70;;;26.42;;
32918;SDS011;19280;42.646;21.150;2022-09-01T18:18:43;39.10;;;30.98;;
32918;SDS011;19280;42.646;21.150;2022-09-01T18:21:13;44.78;;;33.58;;
32918;SDS011;19280;42.646;21.150;2022-09-01T18:23:42;44.63;;;34.67;;
32918;SDS011;19280;42.646;21.150;2022-09-01T18:26:11;39.88;;;32.88;;
32918;SDS011;19280;42.646;21.150;2022-09-01T18:28:40;41.23;;;34.30;;
32918;SDS011;19280;42.646;21.150;2022-09-01T18:33:59;38.78;;;31.13;;
32918;SDS011;19280;42.646;21.150;2022-09-01T18:39:12;18.95;;;5.78;;
32918;SDS011;19280;42.646;21.150;2022-09-01T18:49:26;16.67;;;6.50;;
32918;SDS011;19280;42.646;21.150;2022-09-01T18:57:18;12.55;;;5.95;;